sensor_id;sensor_type;location;lat;lon;timestamp;P1;durP1;ratioP1;P2;durP2;ratioP2
56242;SDS011;42155;53.096;23.226;2023-07-20T00:00:12;5.05;;;2.42;;
56242;SDS011;42155;53.096;23.226;2023-07-20T00:02:13;3.92;;;2.45;;
56242;SDS011;42155;53.096;23.226;2023-07-20T00:04:14;4.80;;;2.35;;
56242;SDS011;42155;53.096;23.226;2023-07-20T00:06:14;5.80;;;2.60;;
56242;SDS011;42155;53.096;23.226;2023-07-20T00:08:15;5.28;;;2.78;;
56242;SDS011;42155;53.096;23.226;2023-07-20T00:10:15;4.55;;;2.40;;
56242;SDS011;42155;53.096;23.226;2023-07-20T00:12:16;7.03;;;2.78;;
56242;SDS011;42155;53.096;23.226;2023-07-20T00:14:16;4.50;;;2.50;;
56242;SDS011;42155;53.096;23.226;2023-07-20T00:16:17;6.53;;;2.78;;
56242;SDS011;42155;53.096;23.226;2023-07-20T00:18:18;4.38;;;2.50;;
56242;SDS011;42155;53.096;23.226;2023-07-20T00:20:18;5.18;;;2.80;;
56242;SDS011;42155;53.096;23.226;2023-07-20T00:22:18;6.88;;;2.80;;
56242;SDS011;42155;53.096;23.226;2023-07-20T00:24:19;4.97;;;2.47;;
56242;SDS011;42155;53.096;23.226;2023-07-20T00:26:19;4.30;;;2.60;;
56242;SDS011;42155;53.096;23.226;2023-07-20T00:28:19;4.55;;;2.50;;
56242;SDS011;42155;53.096;23.226;2023-07-20T00:30:20;5.45;;;2.70;;
56242;SDS011;42155;53.096;23.226;2023-07-20T00:32:20;4.95;;;2.42;;
56242;SDS011;42155;53.096;23.226;2023-07-20T00:34:20;5.20;;;2.50;;
56242;SDS011;42155;53.096;23.226;2023-07-20T00:36:21;4.97;;;2.40;;
56242;SDS011;42155;53.096;23.226;2023-07-20T00:38:22;5.53;;;2.40;;
56242;SDS011;42155;53.096;23.226;2023-07-20T00:40:22;6.88;;;2.60;;
56242;SDS011;42155;53.096;23.226;2023-07-20T00:42:22;7.35;;;2.67;;
56242;SDS011;42155;53.096;23.226;2023-07-20T00:44:23;4.88;;;2.47;;
56242;SDS011;42155;53.096;23.226;2023-07-20T00:46:23;5.00;;;2.63;;
56242;SDS011;42155;53.096;23.226;2023-07-20T00:48:24;6.68;;;2.65;;
56242;SDS011;42155;53.096;23.226;2023-07-20T00:50:25;5.07;;;2.42;;
56242;SDS011;42155;53.096;23.226;2023-07-20T00:52:26;7.05;;;2.92;;
56242;SDS011;42155;53.096;23.226;2023-07-20T00:54:28;4.88;;;2.67;;
56242;SDS011;42155;53.096;23.226;2023-07-20T00:56:29;4.75;;;2.60;;
56242;SDS011;42155;53.096;23.226;2023-07-20T00:58:30;5.88;;;2.83;;
56242;SDS011;42155;53.096;23.226;2023-07-20T01:00:30;4.28;;;2.40;;
56242;SDS011;42155;53.096;23.226;2023-07-20T01:02:31;5.32;;;2.50;;
56242;SDS011;42155;53.096;23.226;2023-07-20T01:04:31;6.53;;;2.60;;
56242;SDS011;42155;53.096;23.226;2023-07-20T01:08:52;7.07;;;2.25;;
56242;SDS011;42155;53.096;23.226;2023-07-20T01:11:06;4.15;;;2.40;;
56242;SDS011;42155;53.096;23.226;2023-07-20T01:13:14;3.70;;;2.83;;
56242;SDS011;42155;53.096;23.226;2023-07-20T01:15:15;4.10;;;2.30;;
56242;SDS011;42155;53.096;23.226;2023-07-20T01:17:15;7.22;;;2.42;;
56242;SDS011;42155;53.096;23.226;2023-07-20T01:19:15;4.32;;;2.53;;
56242;SDS011;42155;53.096;23.226;2023-07-20T01:21:24;4.47;;;2.40;;
56242;SDS011;42155;53.096;23.226;2023-07-20T01:25:44;4.10;;;2.40;;
56242;SDS011;42155;53.096;23.226;2023-07-20T01:32:45;5.88;;;2.30;;
56242;SDS011;42155;53.096;23.226;2023-07-20T01:34:47;6.07;;;2.60;;
56242;SDS011;42155;53.096;23.226;2023-07-20T01:36:49;5.68;;;2.63;;
56242;SDS011;42155;53.096;23.226;2023-07-20T01:38:52;5.70;;;2.60;;
56242;SDS011;42155;53.096;23.226;2023-07-20T01:40:53;7.70;;;2.90;;
56242;SDS011;42155;53.096;23.226;2023-07-20T01:42:53;6.15;;;2.83;;
56242;SDS011;42155;53.096;23.226;2023-07-20T01:44:53;7.40;;;2.55;;
56242;SDS011;42155;53.096;23.226;2023-07-20T01:46:54;3.92;;;2.50;;
56242;SDS011;42155;53.096;23.226;2023-07-20T01:48:54;5.10;;;2.65;;
56242;SDS011;42155;53.096;23.226;2023-07-20T01:50:55;5.20;;;2.83;;
56242;SDS011;42155;53.096;23.226;2023-07-20T01:52:55;5.07;;;2.47;;
56242;SDS011;42155;53.096;23.226;2023-07-20T01:54:55;5.20;;;2.95;;
56242;SDS011;42155;53.096;23.226;2023-07-20T01:56:56;5.07;;;2.80;;
56242;SDS011;42155;53.096;23.226;2023-07-20T01:58:56;5.32;;;3.03;;
56242;SDS011;42155;53.096;23.226;2023-07-20T02:00:56;8.18;;;3.10;;
56242;SDS011;42155;53.096;23.226;2023-07-20T02:02:56;6.80;;;3.00;;
56242;SDS011;42155;53.096;23.226;2023-07-20T02:04:57;6.03;;;3.15;;
56242;SDS011;42155;53.096;23.226;2023-07-20T02:06:57;5.40;;;3.00;;
56242;SDS011;42155;53.096;23.226;2023-07-20T02:08:57;6.32;;;3.35;;
56242;SDS011;42155;53.096;23.226;2023-07-20T02:10:58;5.28;;;3.17;;
56242;SDS011;42155;53.096;23.226;2023-07-20T02:12:58;6.97;;;3.17;;
56242;SDS011;42155;53.096;23.226;2023-07-20T02:14:58;5.07;;;3.22;;
56242;SDS011;42155;53.096;23.226;2023-07-20T02:16:59;4.43;;;3.13;;
56242;SDS011;42155;53.096;23.226;2023-07-20T02:18:59;5.03;;;3.17;;
56242;SDS011;42155;53.096;23.226;2023-07-20T02:20:59;5.78;;;3.15;;
56242;SDS011;42155;53.096;23.226;2023-07-20T02:23:00;7.28;;;3.22;;
56242;SDS011;42155;53.096;23.226;2023-07-20T02:25:00;7.55;;;2.90;;
56242;SDS011;42155;53.096;23.226;2023-07-20T02:27:00;5.45;;;2.83;;
56242;SDS011;42155;53.096;23.226;2023-07-20T02:29:01;4.75;;;3.03;;
56242;SDS011;42155;53.096;23.226;2023-07-20T02:31:01;6.10;;;3.47;;
56242;SDS011;42155;53.096;23.226;2023-07-20T02:33:01;4.45;;;3.33;;
56242;SDS011;42155;53.096;23.226;2023-07-20T02:35:02;5.75;;;2.78;;
56242;SDS011;42155;53.096;23.226;2023-07-20T02:37:02;4.30;;;2.67;;
56242;SDS011;42155;53.096;23.226;2023-07-20T02:39:03;6.90;;;2.90;;
56242;SDS011;42155;53.096;23.226;2023-07-20T02:41:03;4.68;;;2.88;;
56242;SDS011;42155;53.096;23.226;2023-07-20T02:43:03;4.75;;;3.08;;
56242;SDS011;42155;53.096;23.226;2023-07-20T02:45:04;4.13;;;2.58;;
56242;SDS011;42155;53.096;23.226;2023-07-20T02:47:05;5.80;;;2.72;;
56242;SDS011;42155;53.096;23.226;2023-07-20T02:49:05;8.70;;;2.85;;
56242;SDS011;42155;53.096;23.226;2023-07-20T02:51:05;4.80;;;2.72;;
56242;SDS011;42155;53.096;23.226;2023-07-20T02:53:06;7.15;;;2.85;;
56242;SDS011;42155;53.096;23.226;2023-07-20T02:55:06;6.85;;;2.60;;
56242;SDS011;42155;53.096;23.226;2023-07-20T02:57:07;4.03;;;2.47;;
56242;SDS011;42155;53.096;23.226;2023-07-20T02:59:07;5.68;;;3.13;;
56242;SDS011;42155;53.096;23.226;2023-07-20T03:01:08;7.55;;;3.15;;
56242;SDS011;42155;53.096;23.226;2023-07-20T03:03:08;6.10;;;2.78;;
56242;SDS011;42155;53.096;23.226;2023-07-20T03:05:09;4.05;;;2.80;;
56242;SDS011;42155;53.096;23.226;2023-07-20T03:07:09;7.45;;;3.20;;
56242;SDS011;42155;53.096;23.226;2023-07-20T03:09:10;4.15;;;2.65;;
56242;SDS011;42155;53.096;23.226;2023-07-20T03:11:10;5.22;;;2.72;;
56242;SDS011;42155;53.096;23.226;2023-07-20T03:13:10;4.20;;;2.75;;
56242;SDS011;42155;53.096;23.226;2023-07-20T03:15:11;4.25;;;2.70;;
56242;SDS011;42155;53.096;23.226;2023-07-20T03:17:11;7.30;;;3.03;;
56242;SDS011;42155;53.096;23.226;2023-07-20T03:19:11;5.20;;;2.72;;
56242;SDS011;42155;53.096;23.226;2023-07-20T03:21:12;4.90;;;2.70;;
56242;SDS011;42155;53.096;23.226;2023-07-20T03:23:12;4.53;;;2.58;;
56242;SDS011;42155;53.096;23.226;2023-07-20T03:25:12;4.07;;;2.75;;
56242;SDS011;42155;53.096;23.226;2023-07-20T03:27:13;4.03;;;2.67;;
56242;SDS011;42155;53.096;23.226;2023-07-20T03:29:13;6.13;;;2.95;;
56242;SDS011;42155;53.096;23.226;2023-07-20T03:31:14;7.55;;;2.88;;
56242;SDS011;42155;53.096;23.226;2023-07-20T03:33:14;4.60;;;2.90;;
56242;SDS011;42155;53.096;23.226;2023-07-20T03:35:14;4.93;;;2.67;;
56242;SDS011;42155;53.096;23.226;2023-07-20T03:37:15;4.00;;;2.28;;
56242;SDS011;42155;53.096;23.226;2023-07-20T03:39:15;3.83;;;2.45;;
56242;SDS011;42155;53.096;23.226;2023-07-20T03:41:15;6.10;;;2.67;;
56242;SDS011;42155;53.096;23.226;2023-07-20T03:43:16;5.18;;;2.72;;
56242;SDS011;42155;53.096;23.226;2023-07-20T03:45:16;3.17;;;2.30;;
56242;SDS011;42155;53.096;23.226;2023-07-20T03:47:17;5.90;;;2.72;;
56242;SDS011;42155;53.096;23.226;2023-07-20T03:49:17;3.60;;;2.28;;
56242;SDS011;42155;53.096;23.226;2023-07-20T03:51:17;6.13;;;2.63;;
56242;SDS011;42155;53.096;23.226;2023-07-20T03:53:18;7.47;;;2.80;;
56242;SDS011;42155;53.096;23.226;2023-07-20T03:55:18;5.38;;;2.80;;
56242;SDS011;42155;53.096;23.226;2023-07-20T03:57:19;5.28;;;3.00;;
56242;SDS011;42155;53.096;23.226;2023-07-20T03:59:19;4.50;;;2.53;;
56242;SDS011;42155;53.096;23.226;2023-07-20T04:01:20;5.40;;;2.65;;
56242;SDS011;42155;53.096;23.226;2023-07-20T04:03:20;6.93;;;2.85;;
56242;SDS011;42155;53.096;23.226;2023-07-20T04:05:21;5.47;;;2.65;;
56242;SDS011;42155;53.096;23.226;2023-07-20T04:07:21;3.85;;;2.60;;
56242;SDS011;42155;53.096;23.226;2023-07-20T04:09:21;5.47;;;2.65;;
56242;SDS011;42155;53.096;23.226;2023-07-20T04:11:22;3.70;;;2.40;;
56242;SDS011;42155;53.096;23.226;2023-07-20T04:13:22;5.63;;;2.70;;
56242;SDS011;42155;53.096;23.226;2023-07-20T04:15:22;4.47;;;2.55;;
56242;SDS011;42155;53.096;23.226;2023-07-20T04:17:23;5.72;;;2.58;;
56242;SDS011;42155;53.096;23.226;2023-07-20T04:19:23;4.32;;;2.47;;
56242;SDS011;42155;53.096;23.226;2023-07-20T04:21:25;4.15;;;2.63;;
56242;SDS011;42155;53.096;23.226;2023-07-20T04:23:26;6.15;;;2.83;;
56242;SDS011;42155;53.096;23.226;2023-07-20T04:25:27;7.72;;;2.50;;
56242;SDS011;42155;53.096;23.226;2023-07-20T04:27:27;6.05;;;2.90;;
56242;SDS011;42155;53.096;23.226;2023-07-20T04:29:27;5.20;;;2.50;;
56242;SDS011;42155;53.096;23.226;2023-07-20T04:31:28;4.78;;;2.70;;
56242;SDS011;42155;53.096;23.226;2023-07-20T04:33:28;4.97;;;2.50;;
56242;SDS011;42155;53.096;23.226;2023-07-20T04:35:49;3.83;;;2.70;;
56242;SDS011;42155;53.096;23.226;2023-07-20T04:37:50;5.80;;;2.72;;
56242;SDS011;42155;53.096;23.226;2023-07-20T04:39:51;6.65;;;2.97;;
56242;SDS011;42155;53.096;23.226;2023-07-20T04:41:51;4.55;;;2.63;;
56242;SDS011;42155;53.096;23.226;2023-07-20T04:43:51;5.28;;;2.63;;
56242;SDS011;42155;53.096;23.226;2023-07-20T04:45:52;5.32;;;2.40;;
56242;SDS011;42155;53.096;23.226;2023-07-20T04:47:52;3.97;;;2.40;;
56242;SDS011;42155;53.096;23.226;2023-07-20T04:49:52;6.97;;;2.63;;
56242;SDS011;42155;53.096;23.226;2023-07-20T04:51:53;5.22;;;3.00;;
56242;SDS011;42155;53.096;23.226;2023-07-20T04:53:53;4.82;;;2.60;;
56242;SDS011;42155;53.096;23.226;2023-07-20T04:55:53;3.83;;;2.60;;
56242;SDS011;42155;53.096;23.226;2023-07-20T04:57:54;6.75;;;2.53;;
56242;SDS011;42155;53.096;23.226;2023-07-20T04:59:54;4.18;;;2.50;;
56242;SDS011;42155;53.096;23.226;2023-07-20T05:01:54;4.78;;;2.63;;
56242;SDS011;42155;53.096;23.226;2023-07-20T05:03:55;5.53;;;2.78;;
56242;SDS011;42155;53.096;23.226;2023-07-20T05:05:55;7.07;;;2.80;;
56242;SDS011;42155;53.096;23.226;2023-07-20T05:07:56;4.55;;;2.45;;
56242;SDS011;42155;53.096;23.226;2023-07-20T05:09:57;7.65;;;3.10;;
56242;SDS011;42155;53.096;23.226;2023-07-20T05:11:57;5.97;;;2.25;;
56242;SDS011;42155;53.096;23.226;2023-07-20T05:13:59;7.15;;;2.58;;
56242;SDS011;42155;53.096;23.226;2023-07-20T05:16:00;5.07;;;2.40;;
56242;SDS011;42155;53.096;23.226;2023-07-20T05:18:00;3.72;;;2.33;;
56242;SDS011;42155;53.096;23.226;2023-07-20T05:20:01;4.68;;;2.20;;
56242;SDS011;42155;53.096;23.226;2023-07-20T05:22:01;6.20;;;2.20;;
56242;SDS011;42155;53.096;23.226;2023-07-20T05:24:01;3.38;;;2.10;;
56242;SDS011;42155;53.096;23.226;2023-07-20T05:26:02;5.82;;;2.17;;
56242;SDS011;42155;53.096;23.226;2023-07-20T05:28:02;5.25;;;2.20;;
56242;SDS011;42155;53.096;23.226;2023-07-20T05:30:03;3.33;;;2.10;;
56242;SDS011;42155;53.096;23.226;2023-07-20T05:32:04;4.07;;;1.92;;
56242;SDS011;42155;53.096;23.226;2023-07-20T05:34:05;3.50;;;2.25;;
56242;SDS011;42155;53.096;23.226;2023-07-20T05:36:05;4.97;;;2.28;;
56242;SDS011;42155;53.096;23.226;2023-07-20T05:38:06;4.13;;;2.25;;
56242;SDS011;42155;53.096;23.226;2023-07-20T05:40:06;3.53;;;2.20;;
56242;SDS011;42155;53.096;23.226;2023-07-20T05:42:07;4.32;;;2.38;;
56242;SDS011;42155;53.096;23.226;2023-07-20T05:44:07;4.85;;;2.40;;
56242;SDS011;42155;53.096;23.226;2023-07-20T05:46:08;4.72;;;2.05;;
56242;SDS011;42155;53.096;23.226;2023-07-20T05:48:08;3.28;;;1.90;;
56242;SDS011;42155;53.096;23.226;2023-07-20T05:50:09;6.55;;;2.15;;
56242;SDS011;42155;53.096;23.226;2023-07-20T05:52:10;3.30;;;2.13;;
56242;SDS011;42155;53.096;23.226;2023-07-20T05:54:11;4.78;;;2.15;;
56242;SDS011;42155;53.096;23.226;2023-07-20T05:56:11;6.32;;;2.22;;
56242;SDS011;42155;53.096;23.226;2023-07-20T05:58:11;4.47;;;2.28;;
56242;SDS011;42155;53.096;23.226;2023-07-20T06:00:12;3.58;;;1.92;;
56242;SDS011;42155;53.096;23.226;2023-07-20T06:02:12;6.03;;;2.60;;
56242;SDS011;42155;53.096;23.226;2023-07-20T06:04:13;7.10;;;2.00;;
56242;SDS011;42155;53.096;23.226;2023-07-20T06:06:13;5.43;;;2.38;;
56242;SDS011;42155;53.096;23.226;2023-07-20T06:08:13;4.57;;;2.33;;
56242;SDS011;42155;53.096;23.226;2023-07-20T06:10:14;3.33;;;2.15;;
56242;SDS011;42155;53.096;23.226;2023-07-20T06:12:14;5.82;;;2.10;;
56242;SDS011;42155;53.096;23.226;2023-07-20T06:14:14;3.65;;;2.10;;
56242;SDS011;42155;53.096;23.226;2023-07-20T06:16:15;3.45;;;2.03;;
56242;SDS011;42155;53.096;23.226;2023-07-20T06:18:15;6.07;;;1.95;;
56242;SDS011;42155;53.096;23.226;2023-07-20T06:20:15;3.97;;;1.90;;
56242;SDS011;42155;53.096;23.226;2023-07-20T06:22:16;4.00;;;2.17;;
56242;SDS011;42155;53.096;23.226;2023-07-20T06:24:16;3.60;;;2.20;;
56242;SDS011;42155;53.096;23.226;2023-07-20T06:26:17;8.00;;;2.47;;
56242;SDS011;42155;53.096;23.226;2023-07-20T06:28:18;5.40;;;2.05;;
56242;SDS011;42155;53.096;23.226;2023-07-20T06:30:20;6.43;;;2.22;;
56242;SDS011;42155;53.096;23.226;2023-07-20T06:32:21;5.00;;;2.20;;
56242;SDS011;42155;53.096;23.226;2023-07-20T06:34:21;3.60;;;1.88;;
56242;SDS011;42155;53.096;23.226;2023-07-20T06:36:22;3.55;;;2.10;;
56242;SDS011;42155;53.096;23.226;2023-07-20T06:38:22;7.57;;;2.10;;
56242;SDS011;42155;53.096;23.226;2023-07-20T06:40:23;3.60;;;2.08;;
56242;SDS011;42155;53.096;23.226;2023-07-20T06:42:23;2.38;;;1.90;;
56242;SDS011;42155;53.096;23.226;2023-07-20T06:44:23;5.75;;;2.30;;
56242;SDS011;42155;53.096;23.226;2023-07-20T06:46:24;4.22;;;1.98;;
56242;SDS011;42155;53.096;23.226;2023-07-20T06:48:25;3.72;;;2.20;;
56242;SDS011;42155;53.096;23.226;2023-07-20T06:50:26;7.18;;;2.40;;
56242;SDS011;42155;53.096;23.226;2023-07-20T06:52:26;4.20;;;2.08;;
56242;SDS011;42155;53.096;23.226;2023-07-20T06:54:26;3.30;;;2.15;;
56242;SDS011;42155;53.096;23.226;2023-07-20T06:56:27;5.15;;;2.33;;
56242;SDS011;42155;53.096;23.226;2023-07-20T06:58:27;4.70;;;2.40;;
56242;SDS011;42155;53.096;23.226;2023-07-20T07:00:27;5.45;;;2.20;;
56242;SDS011;42155;53.096;23.226;2023-07-20T07:02:28;4.35;;;2.22;;
56242;SDS011;42155;53.096;23.226;2023-07-20T07:04:28;3.28;;;2.00;;
56242;SDS011;42155;53.096;23.226;2023-07-20T07:06:28;5.63;;;2.38;;
56242;SDS011;42155;53.096;23.226;2023-07-20T07:08:29;3.78;;;2.10;;
56242;SDS011;42155;53.096;23.226;2023-07-20T07:10:29;6.53;;;2.28;;
56242;SDS011;42155;53.096;23.226;2023-07-20T07:12:29;4.47;;;2.20;;
56242;SDS011;42155;53.096;23.226;2023-07-20T07:14:30;5.25;;;2.33;;
56242;SDS011;42155;53.096;23.226;2023-07-20T07:16:30;3.60;;;1.98;;
56242;SDS011;42155;53.096;23.226;2023-07-20T07:18:30;3.65;;;1.90;;
56242;SDS011;42155;53.096;23.226;2023-07-20T07:20:31;5.60;;;2.35;;
56242;SDS011;42155;53.096;23.226;2023-07-20T07:22:31;5.93;;;2.20;;
56242;SDS011;42155;53.096;23.226;2023-07-20T07:24:31;4.75;;;2.10;;
56242;SDS011;42155;53.096;23.226;2023-07-20T07:26:32;5.00;;;2.15;;
56242;SDS011;42155;53.096;23.226;2023-07-20T07:28:32;23.25;;;2.65;;
56242;SDS011;42155;53.096;23.226;2023-07-20T07:30:33;5.30;;;1.90;;
56242;SDS011;42155;53.096;23.226;2023-07-20T07:32:33;4.70;;;2.10;;
56242;SDS011;42155;53.096;23.226;2023-07-20T07:34:33;6.60;;;2.15;;
56242;SDS011;42155;53.096;23.226;2023-07-20T07:36:34;3.20;;;2.03;;
56242;SDS011;42155;53.096;23.226;2023-07-20T07:38:35;8.18;;;2.40;;
56242;SDS011;42155;53.096;23.226;2023-07-20T07:40:35;5.60;;;2.08;;
56242;SDS011;42155;53.096;23.226;2023-07-20T07:42:35;5.03;;;2.15;;
56242;SDS011;42155;53.096;23.226;2023-07-20T07:44:36;7.45;;;2.08;;
56242;SDS011;42155;53.096;23.226;2023-07-20T07:46:36;5.78;;;2.50;;
56242;SDS011;42155;53.096;23.226;2023-07-20T07:48:37;5.20;;;2.35;;
56242;SDS011;42155;53.096;23.226;2023-07-20T07:50:37;3.47;;;2.20;;
56242;SDS011;42155;53.096;23.226;2023-07-20T07:52:38;4.63;;;2.30;;
56242;SDS011;42155;53.096;23.226;2023-07-20T07:54:38;6.18;;;2.72;;
56242;SDS011;42155;53.096;23.226;2023-07-20T07:56:39;5.05;;;3.15;;
56242;SDS011;42155;53.096;23.226;2023-07-20T07:58:39;5.15;;;2.10;;
56242;SDS011;42155;53.096;23.226;2023-07-20T08:00:39;4.85;;;2.10;;
56242;SDS011;42155;53.096;23.226;2023-07-20T08:02:40;4.07;;;2.38;;
56242;SDS011;42155;53.096;23.226;2023-07-20T08:04:41;5.65;;;2.20;;
56242;SDS011;42155;53.096;23.226;2023-07-20T08:06:42;7.50;;;2.40;;
56242;SDS011;42155;53.096;23.226;2023-07-20T08:08:42;3.25;;;2.08;;
56242;SDS011;42155;53.096;23.226;2023-07-20T08:10:43;5.60;;;2.20;;
56242;SDS011;42155;53.096;23.226;2023-07-20T08:12:43;6.63;;;2.85;;
56242;SDS011;42155;53.096;23.226;2023-07-20T08:14:43;5.55;;;2.50;;
56242;SDS011;42155;53.096;23.226;2023-07-20T08:16:44;5.97;;;2.30;;
56242;SDS011;42155;53.096;23.226;2023-07-20T08:18:44;4.78;;;2.42;;
56242;SDS011;42155;53.096;23.226;2023-07-20T08:20:44;4.57;;;2.70;;
56242;SDS011;42155;53.096;23.226;2023-07-20T08:22:45;5.22;;;2.67;;
56242;SDS011;42155;53.096;23.226;2023-07-20T08:24:45;5.78;;;2.80;;
56242;SDS011;42155;53.096;23.226;2023-07-20T08:26:46;6.18;;;2.83;;
56242;SDS011;42155;53.096;23.226;2023-07-20T08:28:46;4.43;;;2.72;;
56242;SDS011;42155;53.096;23.226;2023-07-20T08:30:47;6.70;;;2.90;;
56242;SDS011;42155;53.096;23.226;2023-07-20T08:32:48;5.35;;;2.95;;
56242;SDS011;42155;53.096;23.226;2023-07-20T08:34:48;8.10;;;3.40;;
56242;SDS011;42155;53.096;23.226;2023-07-20T08:36:49;8.43;;;2.97;;
56242;SDS011;42155;53.096;23.226;2023-07-20T08:38:49;5.30;;;2.75;;
56242;SDS011;42155;53.096;23.226;2023-07-20T08:40:49;5.20;;;2.83;;
56242;SDS011;42155;53.096;23.226;2023-07-20T08:42:52;6.63;;;2.75;;
56242;SDS011;42155;53.096;23.226;2023-07-20T08:44:54;7.05;;;2.92;;
56242;SDS011;42155;53.096;23.226;2023-07-20T08:46:55;7.80;;;3.17;;
56242;SDS011;42155;53.096;23.226;2023-07-20T08:48:57;7.85;;;3.30;;
56242;SDS011;42155;53.096;23.226;2023-07-20T08:50:58;9.52;;;3.03;;
56242;SDS011;42155;53.096;23.226;2023-07-20T08:52:59;5.95;;;3.03;;
56242;SDS011;42155;53.096;23.226;2023-07-20T08:55:00;5.95;;;3.20;;
56242;SDS011;42155;53.096;23.226;2023-07-20T08:57:01;5.18;;;3.15;;
56242;SDS011;42155;53.096;23.226;2023-07-20T08:59:02;3.60;;;2.88;;
56242;SDS011;42155;53.096;23.226;2023-07-20T09:01:03;7.68;;;3.30;;
56242;SDS011;42155;53.096;23.226;2023-07-20T09:03:03;8.43;;;3.47;;
56242;SDS011;42155;53.096;23.226;2023-07-20T09:05:05;5.10;;;3.08;;
56242;SDS011;42155;53.096;23.226;2023-07-20T09:07:07;5.28;;;3.13;;
56242;SDS011;42155;53.096;23.226;2023-07-20T09:09:07;8.15;;;2.95;;
56242;SDS011;42155;53.096;23.226;2023-07-20T09:11:10;6.47;;;3.08;;
56242;SDS011;42155;53.096;23.226;2023-07-20T09:13:15;4.95;;;3.05;;
56242;SDS011;42155;53.096;23.226;2023-07-20T09:15:15;6.07;;;3.15;;
56242;SDS011;42155;53.096;23.226;2023-07-20T09:17:16;6.97;;;3.13;;
56242;SDS011;42155;53.096;23.226;2023-07-20T09:19:17;7.28;;;3.22;;
56242;SDS011;42155;53.096;23.226;2023-07-20T09:21:18;7.63;;;3.35;;
56242;SDS011;42155;53.096;23.226;2023-07-20T09:23:18;8.02;;;3.78;;
56242;SDS011;42155;53.096;23.226;2023-07-20T09:25:19;4.65;;;3.08;;
56242;SDS011;42155;53.096;23.226;2023-07-20T09:27:19;4.32;;;3.25;;
56242;SDS011;42155;53.096;23.226;2023-07-20T09:29:20;6.43;;;4.05;;
56242;SDS011;42155;53.096;23.226;2023-07-20T09:31:20;6.10;;;4.28;;
56242;SDS011;42155;53.096;23.226;2023-07-20T09:33:22;4.97;;;3.53;;
56242;SDS011;42155;53.096;23.226;2023-07-20T09:35:22;8.30;;;4.22;;
56242;SDS011;42155;53.096;23.226;2023-07-20T09:37:24;7.78;;;4.18;;
56242;SDS011;42155;53.096;23.226;2023-07-20T09:39:24;4.90;;;3.72;;
56242;SDS011;42155;53.096;23.226;2023-07-20T09:41:24;7.88;;;3.67;;
56242;SDS011;42155;53.096;23.226;2023-07-20T09:43:25;5.80;;;3.92;;
56242;SDS011;42155;53.096;23.226;2023-07-20T09:45:29;6.80;;;3.78;;
56242;SDS011;42155;53.096;23.226;2023-07-20T09:47:34;5.75;;;3.20;;
56242;SDS011;42155;53.096;23.226;2023-07-20T09:49:40;5.43;;;3.40;;
56242;SDS011;42155;53.096;23.226;2023-07-20T09:51:40;6.07;;;3.47;;
56242;SDS011;42155;53.096;23.226;2023-07-20T09:53:41;7.65;;;3.90;;
56242;SDS011;42155;53.096;23.226;2023-07-20T09:55:43;7.25;;;3.78;;
56242;SDS011;42155;53.096;23.226;2023-07-20T09:57:44;7.25;;;3.63;;
56242;SDS011;42155;53.096;23.226;2023-07-20T09:59:45;7.60;;;3.58;;
56242;SDS011;42155;53.096;23.226;2023-07-20T10:01:45;5.88;;;3.40;;
56242;SDS011;42155;53.096;23.226;2023-07-20T10:03:47;7.95;;;3.75;;
56242;SDS011;42155;53.096;23.226;2023-07-20T10:05:56;7.57;;;3.85;;
56242;SDS011;42155;53.096;23.226;2023-07-20T10:08:00;7.35;;;4.10;;
56242;SDS011;42155;53.096;23.226;2023-07-20T10:10:02;7.07;;;4.53;;
56242;SDS011;42155;53.096;23.226;2023-07-20T10:12:04;7.82;;;4.38;;
56242;SDS011;42155;53.096;23.226;2023-07-20T10:14:06;6.47;;;4.43;;
56242;SDS011;42155;53.096;23.226;2023-07-20T10:16:09;6.55;;;4.00;;
56242;SDS011;42155;53.096;23.226;2023-07-20T10:20:49;7.07;;;4.35;;
56242;SDS011;42155;53.096;23.226;2023-07-20T10:22:54;6.72;;;3.85;;
56242;SDS011;42155;53.096;23.226;2023-07-20T10:24:56;7.47;;;4.47;;
56242;SDS011;42155;53.096;23.226;2023-07-20T10:26:58;5.07;;;3.55;;
56242;SDS011;42155;53.096;23.226;2023-07-20T10:28:58;6.50;;;4.07;;
56242;SDS011;42155;53.096;23.226;2023-07-20T10:31:00;5.13;;;3.80;;
56242;SDS011;42155;53.096;23.226;2023-07-20T10:33:02;7.32;;;3.90;;
56242;SDS011;42155;53.096;23.226;2023-07-20T10:35:11;5.28;;;3.75;;
56242;SDS011;42155;53.096;23.226;2023-07-20T10:39:50;5.72;;;3.63;;
56242;SDS011;42155;53.096;23.226;2023-07-20T10:42:08;5.68;;;3.55;;
56242;SDS011;42155;53.096;23.226;2023-07-20T10:44:09;5.25;;;3.22;;
56242;SDS011;42155;53.096;23.226;2023-07-20T10:46:12;5.93;;;3.80;;
56242;SDS011;42155;53.096;23.226;2023-07-20T10:50:13;6.35;;;3.40;;
56242;SDS011;42155;53.096;23.226;2023-07-20T10:52:14;7.38;;;3.58;;
56242;SDS011;42155;53.096;23.226;2023-07-20T10:56:23;24.98;;;5.43;;
56242;SDS011;42155;53.096;23.226;2023-07-20T10:58:26;14.95;;;4.35;;
56242;SDS011;42155;53.096;23.226;2023-07-20T11:00:27;10.60;;;4.70;;
56242;SDS011;42155;53.096;23.226;2023-07-20T11:02:29;13.50;;;4.00;;
56242;SDS011;42155;53.096;23.226;2023-07-20T11:04:42;14.98;;;5.00;;
56242;SDS011;42155;53.096;23.226;2023-07-20T11:06:44;14.30;;;4.82;;
56242;SDS011;42155;53.096;23.226;2023-07-20T11:08:44;8.45;;;4.70;;
56242;SDS011;42155;53.096;23.226;2023-07-20T11:10:45;7.78;;;4.82;;
56242;SDS011;42155;53.096;23.226;2023-07-20T11:15:18;15.63;;;5.63;;
56242;SDS011;42155;53.096;23.226;2023-07-20T11:17:19;26.98;;;7.57;;
56242;SDS011;42155;53.096;23.226;2023-07-20T11:19:20;28.13;;;6.60;;
56242;SDS011;42155;53.096;23.226;2023-07-20T11:21:22;12.45;;;5.65;;
56242;SDS011;42155;53.096;23.226;2023-07-20T11:23:22;13.75;;;5.90;;
56242;SDS011;42155;53.096;23.226;2023-07-20T11:25:23;15.65;;;5.47;;
56242;SDS011;42155;53.096;23.226;2023-07-20T11:27:23;23.02;;;6.55;;
56242;SDS011;42155;53.096;23.226;2023-07-20T11:29:24;15.35;;;6.03;;
56242;SDS011;42155;53.096;23.226;2023-07-20T11:31:24;9.43;;;5.80;;
56242;SDS011;42155;53.096;23.226;2023-07-20T11:33:24;10.98;;;5.78;;
56242;SDS011;42155;53.096;23.226;2023-07-20T11:35:25;12.45;;;5.82;;
56242;SDS011;42155;53.096;23.226;2023-07-20T11:37:25;9.05;;;6.00;;
56242;SDS011;42155;53.096;23.226;2023-07-20T11:39:25;9.32;;;5.20;;
56242;SDS011;42155;53.096;23.226;2023-07-20T11:41:26;8.35;;;5.63;;
56242;SDS011;42155;53.096;23.226;2023-07-20T11:43:26;7.68;;;5.20;;
56242;SDS011;42155;53.096;23.226;2023-07-20T11:45:27;6.43;;;5.28;;
56242;SDS011;42155;53.096;23.226;2023-07-20T11:47:30;6.88;;;5.10;;
56242;SDS011;42155;53.096;23.226;2023-07-20T11:49:34;7.13;;;4.68;;
56242;SDS011;42155;53.096;23.226;2023-07-20T11:51:39;6.97;;;4.85;;
56242;SDS011;42155;53.096;23.226;2023-07-20T11:53:40;8.75;;;5.45;;
56242;SDS011;42155;53.096;23.226;2023-07-20T11:55:41;5.95;;;4.25;;
56242;SDS011;42155;53.096;23.226;2023-07-20T11:57:43;5.50;;;4.00;;
56242;SDS011;42155;53.096;23.226;2023-07-20T12:00:02;9.75;;;4.35;;
56242;SDS011;42155;53.096;23.226;2023-07-20T12:02:03;4.97;;;3.33;;
56242;SDS011;42155;53.096;23.226;2023-07-20T12:04:03;5.45;;;3.58;;
56242;SDS011;42155;53.096;23.226;2023-07-20T12:06:07;8.93;;;3.97;;
56242;SDS011;42155;53.096;23.226;2023-07-20T12:08:09;6.25;;;3.92;;
56242;SDS011;42155;53.096;23.226;2023-07-20T12:10:10;6.13;;;3.80;;
56242;SDS011;42155;53.096;23.226;2023-07-20T12:12:11;6.68;;;4.03;;
56242;SDS011;42155;53.096;23.226;2023-07-20T12:14:12;24.00;;;6.35;;
56242;SDS011;42155;53.096;23.226;2023-07-20T12:16:13;36.70;;;7.00;;
56242;SDS011;42155;53.096;23.226;2023-07-20T12:18:15;12.38;;;4.72;;